Flight Track Log - Related Links

Times and Time Zones

All times are in EDT time to prevent confusion due to time zone crossing. See the SWA1535 flight status page for this flight to view local times or setup timezone preferences in your user account.

Time Position Orientation Groundspeed Altitude Reporting Facility
EDT Latitude Longitude Course Direction KTS MPH feet Rate Location/Type
Fri 12:20:26 AM 39.8167 -104.6667 285° West 180 207 7,000  Level Denver TRACON
Fri 12:21:26 AM 39.8333 -104.7500 285° West 283 326 8,800 2,350 Climbing Denver TRACON
Fri 12:22:26 AM 39.8833 -104.8333 308° West 294 338 11,700 2,900 Climbing Denver TRACON
Fri 12:23:26 AM 39.8833 -104.9500 270° West 338 389 14,600 3,050 Climbing Denver TRACON
Fri 12:24:26 AM 39.9000 -105.0667 281° West 352 405 17,800 2,301 Climbing Denver TRACON
Fri 12:26:00 AM 39.9000 -105.2820 270° West  Level FlightAware Approximate
Fri 12:27:05 AM 39.9422 -105.4075 270° West 355 409 23,000  Level Salt Lake Center
Fri 12:29:00 AM 39.9333 -105.6726 270° West  Level FlightAware Approximate
Fri 12:32:23 AM 39.9883 -106.1544 275° West 399 459 27,500  Level Salt Lake Center
Fri 12:33:24 AM 39.9944 -106.3017 273° West 420 483 29,200 2,016 Climbing Salt Lake Center
Fri 12:34:25 AM 40.0047 -106.4736 275° West 427 491 31,600 2,311 Climbing Salt Lake Center
Fri 12:35:26 AM 40.0106 -106.6172 273° West 418 481 33,900 1,171 Climbing Salt Lake Center
Fri 12:36:00 AM 40.0000 -106.6211 270° West  Level FlightAware Approximate
Fri 12:36:28 AM 40.0194 -106.7800 274° West 404 465 34,000  Level Salt Lake Center
Fri 12:37:00 AM 40.0068 -106.7578 275° West  Level FlightAware Approximate
Fri 12:37:29 AM 40.0256 -106.9189 273° West 401 461 34,000  Level Salt Lake Center
Fri 12:38:30 AM 40.0314 -107.0567 273° West 398 458 34,000  Level Salt Lake Center
Fri 12:39:31 AM 40.0394 -107.2183 274° West 399 459 34,000  Level Salt Lake Center
Fri 12:40:32 AM 40.0447 -107.3583 273° West 403 464 34,000  Level Salt Lake Center
Fri 12:41:33 AM 40.0511 -107.4983 273° West 404 465 34,000  Level Salt Lake Center
Fri 12:42:43 AM 40.0586 -107.6850 273° West 403 464 34,000  Level Denver Center
Fri 12:43:44 AM 40.0639 -107.8253 273° West 406 467 34,000  Level Denver Center
Fri 12:44:45 AM 40.0706 -107.9883 273° West 405 466 34,000  Level Denver Center
Fri 12:46:39 AM 40.0822 -108.2456 273° West 406 467 34,000  Level Salt Lake Center
Fri 12:47:40 AM 40.0894 -108.4100 273° West 409 471 34,000  Level Salt Lake Center
Fri 12:48:41 AM 40.0947 -108.5489 273° West 405 466 34,000  Level Salt Lake Center
Fri 12:49:13 AM 40.0992 -108.6425 274° West 406 467 34,000  Level Denver Center
Fri 12:50:14 AM 40.1039 -108.7811 273° West 403 464 34,000  Level Denver Center
Fri 12:51:15 AM 40.1094 -108.9197 273° West 402 463 34,000  Level Denver Center
Fri 12:51:44 AM 40.1114 -108.9889 272° West 402 463 34,000  Level Salt Lake Center
Fri 12:52:45 AM 40.1178 -109.1531 273° West 405 466 34,000  Level Salt Lake Center
Fri 12:53:17 AM 40.1203 -109.2219 273° West 402 463 34,000  Level Denver Center
Fri 12:54:18 AM 40.1258 -109.3631 273° West 407 468 34,000  Level Denver Center
Fri 12:54:47 AM 40.1289 -109.4567 272° West 406 467 34,000  Level Salt Lake Center
Fri 12:55:48 AM 40.1325 -109.6003 272° West 413 475 34,000 -197 Level Salt Lake Center
Fri 12:56:49 AM 40.1381 -109.7439 273° West 414 476 33,600 -738 Descending Salt Lake Center
Fri 12:57:50 AM 40.1431 -109.9117 272° West 415 478 32,500 -1,024 Descending Salt Lake Center
Fri 12:58:52 AM 40.1469 -110.0519 272° West 407 468 31,500 -927 Descending Salt Lake Center
Fri 12:59:53 AM 40.1503 -110.1942 272° West 407 468 30,600 -744 Descending Salt Lake Center
Fri 01:00:53 AM 40.1469 -110.3619 269° West 413 475 30,000 -298 Descending Salt Lake Center
Fri 01:01:54 AM 40.1458 -110.5075 269° West 417 480 30,000  Level Salt Lake Center
Fri 01:02:55 AM 40.1439 -110.6767 269° West 418 481 30,000 -885 Level Salt Lake Center
Fri 01:03:56 AM 40.1436 -110.8206 270° West 414 476 28,200 -2,410 Descending Salt Lake Center
Fri 01:04:57 AM 40.1408 -110.9706 269° West 423 487 25,100 -2,852 Descending Salt Lake Center
Fri 01:05:58 AM 40.1394 -111.1211 269° West 417 480 22,400 -2,508 Descending Salt Lake Center
Fri 01:06:59 AM 40.1367 -111.2650 269° West 401 461 20,000 -2,213 Descending Salt Lake Center
Fri 01:08:00 AM 40.1347 -111.4019 269° West 384 442 17,900 -2,257 Descending Salt Lake Center
Fri 01:08:48 AM 40.1275 -111.5344 266° West 376 433 15,900 -1,350 Descending Salt Lake Center
Fri 01:10:00 AM 40.1708 -111.6742 292° West 344 396 15,200 -1,067 Descending Salt Lake Center
Fri 01:11:03 AM 40.2297 -111.7489 316° Northwest 337 388 13,500 -2,033 Descending Salt Lake Center
Fri 01:12:01 AM 40.2981 -111.8472 312° West 328 377 11,100 -1,765 Descending Salt Lake Center
Fri 01:13:02 AM 40.3758 -111.9025 332° Northwest 316 364 10,000 -836 Descending Salt Lake Center
Fri 01:14:03 AM 40.4544 -111.9406 340° North 295 339 9,400 -694 Descending Salt Lake Center
Fri 01:15:03 AM 40.5336 -111.9703 344° North 271 312 8,600 -843 Descending Salt Lake Center
Fri 01:16:04 AM 40.5967 -111.9742 357° North 228 262 7,700 -942 Descending Salt Lake Center
Fri 01:17:04 AM 40.6550 -111.9856 352° North 205 236 6,700 -1,041 Descending Salt Lake Center
Fri 01:18:05 AM 40.7031 -111.9892 357° North 170 196 5,600 -934 Descending Salt Lake Center
Fri 01:19:06 AM 40.7425 -111.9928 356° North 146 168 4,800 -720 Descending Salt Lake Center
Fri 01:20:10 AM 40.7853 -111.9961 357° North 146 168 4,100 -656 Descending Salt Lake Center
Fri 01:22:00 AM 40.7884 -111.9778 North  Level Estimated

Login

Don't have an account? Register now (free) for customized features, flight alerts, and more!